METAR Data

Data at: 2332 UTC 26 Feb 2020

METAR for:KBGR (Bangor Intl Arpt, ME, US)
Text:KBGR 262253Z 07004KT 10SM FEW055 OVC070 06/M04 A3004 RMK AO2 SLP173 T00561039 $
Temperature: 5.6°C ( 42°F)
Dewpoint: -3.9°C ( 25°F) [RH = 50%]
Pressure (altimeter):30.04 inches Hg (1017.4 mb) [Sea level pressure: 1017.3 mb]
Winds:from the ENE (70 degrees) at 5 MPH (4 knots; 2.1 m/s)
Visibility:10 or more sm (16+ km)
Ceiling:7000 feet AGL
Clouds: few clouds at 5500 feet AGL, overcast cloud deck at 7000 feet AGL
QC Flag:SOME DATA ABOVE MAY BE INACCURATE!!!"$" is an indication the sensor requires maintenance.